sensor_id;sensor_type;location;lat;lon;timestamp;temperature;humidity
17726;DHT22;8983;53.156;17.960;2022-12-24T00:00:24;4.70;99.90
17726;DHT22;8983;53.156;17.960;2022-12-24T00:02:52;4.70;99.90
17726;DHT22;8983;53.156;17.960;2022-12-24T00:05:20;4.70;99.90
17726;DHT22;8983;53.156;17.960;2022-12-24T00:07:49;4.70;99.90
17726;DHT22;8983;53.156;17.960;2022-12-24T00:10:18;4.70;99.90
17726;DHT22;8983;53.156;17.960;2022-12-24T00:12:46;4.70;99.90
17726;DHT22;8983;53.156;17.960;2022-12-24T00:15:13;4.70;99.90
17726;DHT22;8983;53.156;17.960;2022-12-24T00:17:41;4.60;99.90
17726;DHT22;8983;53.156;17.960;2022-12-24T00:20:09;4.70;99.90
17726;DHT22;8983;53.156;17.960;2022-12-24T00:22:37;4.70;99.90
17726;DHT22;8983;53.156;17.960;2022-12-24T00:25:08;4.70;99.90
17726;DHT22;8983;53.156;17.960;2022-12-24T00:27:36;4.70;99.90
17726;DHT22;8983;53.156;17.960;2022-12-24T00:30:05;4.80;99.90
17726;DHT22;8983;53.156;17.960;2022-12-24T00:32:33;4.80;99.90
17726;DHT22;8983;53.156;17.960;2022-12-24T00:35:01;4.70;99.90
17726;DHT22;8983;53.156;17.960;2022-12-24T00:37:29;4.70;99.90
17726;DHT22;8983;53.156;17.960;2022-12-24T00:39:57;4.70;99.90
17726;DHT22;8983;53.156;17.960;2022-12-24T00:42:26;4.70;99.90
17726;DHT22;8983;53.156;17.960;2022-12-24T00:44:54;4.70;99.90
17726;DHT22;8983;53.156;17.960;2022-12-24T00:47:22;4.70;99.90
17726;DHT22;8983;53.156;17.960;2022-12-24T00:49:50;4.70;99.90
17726;DHT22;8983;53.156;17.960;2022-12-24T00:52:18;4.70;99.90
17726;DHT22;8983;53.156;17.960;2022-12-24T00:54:46;4.70;99.90
17726;DHT22;8983;53.156;17.960;2022-12-24T00:57:14;4.70;99.90
17726;DHT22;8983;53.156;17.960;2022-12-24T00:59:43;4.70;99.90
17726;DHT22;8983;53.156;17.960;2022-12-24T01:02:11;4.70;99.90
17726;DHT22;8983;53.156;17.960;2022-12-24T01:04:39;4.70;99.90
17726;DHT22;8983;53.156;17.960;2022-12-24T01:07:25;4.80;99.90
17726;DHT22;8983;53.156;17.960;2022-12-24T01:09:53;4.70;99.90
17726;DHT22;8983;53.156;17.960;2022-12-24T01:12:21;4.70;99.90
17726;DHT22;8983;53.156;17.960;2022-12-24T01:14:50;4.70;99.90
17726;DHT22;8983;53.156;17.960;2022-12-24T01:17:18;4.70;99.90
17726;DHT22;8983;53.156;17.960;2022-12-24T01:19:46;4.60;99.90
17726;DHT22;8983;53.156;17.960;2022-12-24T01:22:14;4.60;99.90
17726;DHT22;8983;53.156;17.960;2022-12-24T01:24:42;4.60;99.90
17726;DHT22;8983;53.156;17.960;2022-12-24T01:27:10;4.70;99.90
17726;DHT22;8983;53.156;17.960;2022-12-24T01:29:38;4.60;99.90
17726;DHT22;8983;53.156;17.960;2022-12-24T01:32:08;4.60;99.90
17726;DHT22;8983;53.156;17.960;2022-12-24T01:34:36;4.50;99.90
17726;DHT22;8983;53.156;17.960;2022-12-24T01:37:04;4.50;99.90
17726;DHT22;8983;53.156;17.960;2022-12-24T01:39:32;4.50;99.90
17726;DHT22;8983;53.156;17.960;2022-12-24T01:42:00;4.50;99.90
17726;DHT22;8983;53.156;17.960;2022-12-24T01:44:48;4.50;99.90
17726;DHT22;8983;53.156;17.960;2022-12-24T01:47:21;4.50;99.90
17726;DHT22;8983;53.156;17.960;2022-12-24T01:49:52;4.40;99.90
17726;DHT22;8983;53.156;17.960;2022-12-24T01:52:24;4.40;99.90
17726;DHT22;8983;53.156;17.960;2022-12-24T01:54:56;4.40;99.90
17726;DHT22;8983;53.156;17.960;2022-12-24T01:57:28;4.50;99.90
17726;DHT22;8983;53.156;17.960;2022-12-24T02:00:01;4.50;99.90
17726;DHT22;8983;53.156;17.960;2022-12-24T02:02:32;4.70;99.90
17726;DHT22;8983;53.156;17.960;2022-12-24T02:05:05;4.60;99.90
17726;DHT22;8983;53.156;17.960;2022-12-24T02:07:35;4.60;99.90
17726;DHT22;8983;53.156;17.960;2022-12-24T02:10:06;4.60;99.90
17726;DHT22;8983;53.156;17.960;2022-12-24T02:12:35;4.60;99.90
17726;DHT22;8983;53.156;17.960;2022-12-24T02:15:05;4.60;99.90
17726;DHT22;8983;53.156;17.960;2022-12-24T02:17:39;4.60;99.90
17726;DHT22;8983;53.156;17.960;2022-12-24T02:20:30;4.50;99.90
17726;DHT22;8983;53.156;17.960;2022-12-24T02:23:15;4.50;99.90
17726;DHT22;8983;53.156;17.960;2022-12-24T02:26:02;4.50;99.90
17726;DHT22;8983;53.156;17.960;2022-12-24T02:28:54;4.50;99.90
17726;DHT22;8983;53.156;17.960;2022-12-24T02:31:35;4.40;99.90
17726;DHT22;8983;53.156;17.960;2022-12-24T02:34:09;4.50;99.90
17726;DHT22;8983;53.156;17.960;2022-12-24T02:36:43;4.60;99.90
17726;DHT22;8983;53.156;17.960;2022-12-24T02:39:19;4.30;99.90
17726;DHT22;8983;53.156;17.960;2022-12-24T02:41:52;4.50;99.90
17726;DHT22;8983;53.156;17.960;2022-12-24T02:44:38;4.50;99.90
17726;DHT22;8983;53.156;17.960;2022-12-24T02:47:10;4.50;99.90
17726;DHT22;8983;53.156;17.960;2022-12-24T02:49:38;4.50;99.90
17726;DHT22;8983;53.156;17.960;2022-12-24T02:52:06;4.50;99.90
17726;DHT22;8983;53.156;17.960;2022-12-24T02:54:34;4.50;99.90
17726;DHT22;8983;53.156;17.960;2022-12-24T02:57:10;4.50;99.90
17726;DHT22;8983;53.156;17.960;2022-12-24T02:59:58;4.50;99.90
17726;DHT22;8983;53.156;17.960;2022-12-24T03:02:37;4.60;99.90
17726;DHT22;8983;53.156;17.960;2022-12-24T03:05:17;4.60;99.90
17726;DHT22;8983;53.156;17.960;2022-12-24T03:07:55;4.60;99.90
17726;DHT22;8983;53.156;17.960;2022-12-24T03:10:30;4.60;99.90
17726;DHT22;8983;53.156;17.960;2022-12-24T03:13:05;4.60;99.90
17726;DHT22;8983;53.156;17.960;2022-12-24T03:15:36;4.60;99.90
17726;DHT22;8983;53.156;17.960;2022-12-24T03:18:08;4.60;99.90
17726;DHT22;8983;53.156;17.960;2022-12-24T03:20:39;4.50;99.90
17726;DHT22;8983;53.156;17.960;2022-12-24T03:23:07;4.60;99.90
17726;DHT22;8983;53.156;17.960;2022-12-24T03:25:38;4.60;99.90
17726;DHT22;8983;53.156;17.960;2022-12-24T03:28:09;4.60;99.90
17726;DHT22;8983;53.156;17.960;2022-12-24T03:30:38;4.60;99.90
17726;DHT22;8983;53.156;17.960;2022-12-24T03:33:08;4.60;99.90
17726;DHT22;8983;53.156;17.960;2022-12-24T03:35:36;4.50;99.90
17726;DHT22;8983;53.156;17.960;2022-12-24T03:38:04;4.50;99.90
17726;DHT22;8983;53.156;17.960;2022-12-24T03:40:32;4.50;99.90
17726;DHT22;8983;53.156;17.960;2022-12-24T03:43:00;4.50;99.90
17726;DHT22;8983;53.156;17.960;2022-12-24T03:45:28;4.50;99.90
17726;DHT22;8983;53.156;17.960;2022-12-24T03:47:56;4.60;99.90
17726;DHT22;8983;53.156;17.960;2022-12-24T03:50:26;4.50;99.90
17726;DHT22;8983;53.156;17.960;2022-12-24T03:52:54;4.50;99.90
17726;DHT22;8983;53.156;17.960;2022-12-24T03:55:22;4.60;99.90
17726;DHT22;8983;53.156;17.960;2022-12-24T03:57:50;4.50;99.90
17726;DHT22;8983;53.156;17.960;2022-12-24T04:00:19;4.50;99.90
17726;DHT22;8983;53.156;17.960;2022-12-24T04:02:47;4.50;99.90
17726;DHT22;8983;53.156;17.960;2022-12-24T04:05:18;4.50;99.90
17726;DHT22;8983;53.156;17.960;2022-12-24T04:07:47;4.60;99.90
17726;DHT22;8983;53.156;17.960;2022-12-24T04:10:16;4.50;99.90
17726;DHT22;8983;53.156;17.960;2022-12-24T04:12:44;4.40;99.90
17726;DHT22;8983;53.156;17.960;2022-12-24T04:15:11;4.50;99.90
17726;DHT22;8983;53.156;17.960;2022-12-24T04:17:39;4.60;99.90
17726;DHT22;8983;53.156;17.960;2022-12-24T04:20:08;4.50;99.90
17726;DHT22;8983;53.156;17.960;2022-12-24T04:22:36;4.40;99.90
17726;DHT22;8983;53.156;17.960;2022-12-24T04:25:07;4.40;99.90
17726;DHT22;8983;53.156;17.960;2022-12-24T04:27:35;4.40;99.90
17726;DHT22;8983;53.156;17.960;2022-12-24T04:30:04;4.50;99.90
17726;DHT22;8983;53.156;17.960;2022-12-24T04:32:32;4.40;99.90
17726;DHT22;8983;53.156;17.960;2022-12-24T04:35:00;4.50;99.90
17726;DHT22;8983;53.156;17.960;2022-12-24T04:37:28;4.40;99.90
17726;DHT22;8983;53.156;17.960;2022-12-24T04:39:56;4.40;99.90
17726;DHT22;8983;53.156;17.960;2022-12-24T04:42:25;4.50;99.90
17726;DHT22;8983;53.156;17.960;2022-12-24T04:44:53;4.40;99.90
17726;DHT22;8983;53.156;17.960;2022-12-24T04:47:21;4.40;99.90
17726;DHT22;8983;53.156;17.960;2022-12-24T04:49:49;4.30;99.90
17726;DHT22;8983;53.156;17.960;2022-12-24T04:52:17;4.30;99.90
17726;DHT22;8983;53.156;17.960;2022-12-24T04:54:45;4.30;99.90
17726;DHT22;8983;53.156;17.960;2022-12-24T04:57:13;4.20;99.90
17726;DHT22;8983;53.156;17.960;2022-12-24T04:59:42;4.10;99.90
17726;DHT22;8983;53.156;17.960;2022-12-24T05:02:10;4.10;99.90
17726;DHT22;8983;53.156;17.960;2022-12-24T05:04:39;4.00;99.90
17726;DHT22;8983;53.156;17.960;2022-12-24T05:07:07;4.00;99.90
17726;DHT22;8983;53.156;17.960;2022-12-24T05:09:35;3.90;99.90
17726;DHT22;8983;53.156;17.960;2022-12-24T05:12:03;3.90;99.90
17726;DHT22;8983;53.156;17.960;2022-12-24T05:14:31;3.90;99.90
17726;DHT22;8983;53.156;17.960;2022-12-24T05:17:01;3.90;99.90
17726;DHT22;8983;53.156;17.960;2022-12-24T05:19:29;3.80;99.90
17726;DHT22;8983;53.156;17.960;2022-12-24T05:21:57;3.80;99.90
17726;DHT22;8983;53.156;17.960;2022-12-24T05:24:39;3.80;99.90
17726;DHT22;8983;53.156;17.960;2022-12-24T05:27:24;3.80;99.90
17726;DHT22;8983;53.156;17.960;2022-12-24T05:29:52;3.70;99.90
17726;DHT22;8983;53.156;17.960;2022-12-24T05:32:22;3.70;99.90
17726;DHT22;8983;53.156;17.960;2022-12-24T05:34:50;3.60;99.90
17726;DHT22;8983;53.156;17.960;2022-12-24T05:37:18;3.60;99.90
17726;DHT22;8983;53.156;17.960;2022-12-24T05:39:45;3.60;99.90
17726;DHT22;8983;53.156;17.960;2022-12-24T05:42:13;3.60;99.90
17726;DHT22;8983;53.156;17.960;2022-12-24T05:44:41;3.60;99.90
17726;DHT22;8983;53.156;17.960;2022-12-24T05:47:09;3.50;99.90
17726;DHT22;8983;53.156;17.960;2022-12-24T05:49:39;3.50;99.90
17726;DHT22;8983;53.156;17.960;2022-12-24T05:52:08;3.50;99.90
17726;DHT22;8983;53.156;17.960;2022-12-24T05:54:36;3.50;99.90
17726;DHT22;8983;53.156;17.960;2022-12-24T05:57:04;3.40;99.90
17726;DHT22;8983;53.156;17.960;2022-12-24T05:59:32;3.40;99.90
17726;DHT22;8983;53.156;17.960;2022-12-24T06:02:00;3.40;99.90
17726;DHT22;8983;53.156;17.960;2022-12-24T06:04:28;3.40;99.90
17726;DHT22;8983;53.156;17.960;2022-12-24T06:06:57;3.40;99.90
17726;DHT22;8983;53.156;17.960;2022-12-24T06:09:25;3.40;99.90
17726;DHT22;8983;53.156;17.960;2022-12-24T06:11:53;3.40;99.90
17726;DHT22;8983;53.156;17.960;2022-12-24T06:14:22;3.40;99.90
17726;DHT22;8983;53.156;17.960;2022-12-24T06:16:50;3.40;99.90
17726;DHT22;8983;53.156;17.960;2022-12-24T06:19:18;3.40;99.90
17726;DHT22;8983;53.156;17.960;2022-12-24T06:21:46;3.40;99.90
17726;DHT22;8983;53.156;17.960;2022-12-24T06:24:15;3.40;99.90
17726;DHT22;8983;53.156;17.960;2022-12-24T06:26:43;3.40;99.90
17726;DHT22;8983;53.156;17.960;2022-12-24T06:29:11;3.40;99.90
17726;DHT22;8983;53.156;17.960;2022-12-24T06:31:39;3.40;99.90
17726;DHT22;8983;53.156;17.960;2022-12-24T06:34:07;3.40;99.90
17726;DHT22;8983;53.156;17.960;2022-12-24T06:36:35;3.40;99.90
17726;DHT22;8983;53.156;17.960;2022-12-24T06:39:03;3.40;99.90
17726;DHT22;8983;53.156;17.960;2022-12-24T06:41:32;3.40;99.90
17726;DHT22;8983;53.156;17.960;2022-12-24T06:44:00;3.40;99.90
17726;DHT22;8983;53.156;17.960;2022-12-24T06:46:28;3.30;99.90
17726;DHT22;8983;53.156;17.960;2022-12-24T06:48:56;3.30;99.90
17726;DHT22;8983;53.156;17.960;2022-12-24T06:51:24;3.30;99.90
17726;DHT22;8983;53.156;17.960;2022-12-24T06:53:52;3.30;99.90
17726;DHT22;8983;53.156;17.960;2022-12-24T06:56:20;3.30;99.90
17726;DHT22;8983;53.156;17.960;2022-12-24T06:58:50;3.20;99.90
17726;DHT22;8983;53.156;17.960;2022-12-24T07:01:19;3.20;99.90
17726;DHT22;8983;53.156;17.960;2022-12-24T07:03:50;3.20;99.90
17726;DHT22;8983;53.156;17.960;2022-12-24T07:06:20;3.20;99.90
17726;DHT22;8983;53.156;17.960;2022-12-24T07:08:51;3.20;99.90
17726;DHT22;8983;53.156;17.960;2022-12-24T07:11:19;3.20;99.90
17726;DHT22;8983;53.156;17.960;2022-12-24T07:13:47;3.20;99.90
17726;DHT22;8983;53.156;17.960;2022-12-24T07:16:17;3.20;99.90
17726;DHT22;8983;53.156;17.960;2022-12-24T07:18:45;3.20;99.90
17726;DHT22;8983;53.156;17.960;2022-12-24T07:21:13;3.20;99.90
17726;DHT22;8983;53.156;17.960;2022-12-24T07:23:41;3.20;99.90
17726;DHT22;8983;53.156;17.960;2022-12-24T07:26:09;3.20;99.90
17726;DHT22;8983;53.156;17.960;2022-12-24T07:28:37;3.20;99.90
17726;DHT22;8983;53.156;17.960;2022-12-24T07:31:05;3.20;99.90
17726;DHT22;8983;53.156;17.960;2022-12-24T07:33:35;3.20;99.90
17726;DHT22;8983;53.156;17.960;2022-12-24T07:36:05;3.20;99.90
17726;DHT22;8983;53.156;17.960;2022-12-24T07:38:33;3.20;99.90
17726;DHT22;8983;53.156;17.960;2022-12-24T07:41:02;3.20;99.90
17726;DHT22;8983;53.156;17.960;2022-12-24T07:43:32;3.30;99.90
17726;DHT22;8983;53.156;17.960;2022-12-24T07:46:00;3.20;99.90
17726;DHT22;8983;53.156;17.960;2022-12-24T07:48:29;3.30;99.90
17726;DHT22;8983;53.156;17.960;2022-12-24T07:50:59;3.30;99.90
17726;DHT22;8983;53.156;17.960;2022-12-24T07:53:28;3.30;99.90
17726;DHT22;8983;53.156;17.960;2022-12-24T07:55:57;3.30;99.90
17726;DHT22;8983;53.156;17.960;2022-12-24T07:58:25;3.40;99.90
17726;DHT22;8983;53.156;17.960;2022-12-24T08:00:57;3.40;99.90
17726;DHT22;8983;53.156;17.960;2022-12-24T08:03:26;3.30;99.90
17726;DHT22;8983;53.156;17.960;2022-12-24T08:05:54;3.30;99.90
17726;DHT22;8983;53.156;17.960;2022-12-24T08:08:25;3.30;99.90
17726;DHT22;8983;53.156;17.960;2022-12-24T08:10:53;3.30;99.90
17726;DHT22;8983;53.156;17.960;2022-12-24T08:13:21;3.30;99.90
17726;DHT22;8983;53.156;17.960;2022-12-24T08:15:49;3.30;99.90
17726;DHT22;8983;53.156;17.960;2022-12-24T08:18:17;3.40;99.90
17726;DHT22;8983;53.156;17.960;2022-12-24T08:20:45;3.40;99.90
17726;DHT22;8983;53.156;17.960;2022-12-24T08:23:13;3.40;99.90
17726;DHT22;8983;53.156;17.960;2022-12-24T08:25:44;3.40;99.90
17726;DHT22;8983;53.156;17.960;2022-12-24T08:28:14;3.40;99.90
17726;DHT22;8983;53.156;17.960;2022-12-24T08:30:43;3.40;99.90
17726;DHT22;8983;53.156;17.960;2022-12-24T08:33:11;3.40;99.90
17726;DHT22;8983;53.156;17.960;2022-12-24T08:35:39;3.40;99.90
17726;DHT22;8983;53.156;17.960;2022-12-24T08:38:07;3.40;99.90
17726;DHT22;8983;53.156;17.960;2022-12-24T08:40:35;3.50;99.90
17726;DHT22;8983;53.156;17.960;2022-12-24T08:43:04;3.50;99.90
17726;DHT22;8983;53.156;17.960;2022-12-24T08:45:32;3.60;99.90
17726;DHT22;8983;53.156;17.960;2022-12-24T08:48:07;3.60;99.90
17726;DHT22;8983;53.156;17.960;2022-12-24T08:50:38;3.60;99.90
17726;DHT22;8983;53.156;17.960;2022-12-24T08:53:07;3.60;99.90
17726;DHT22;8983;53.156;17.960;2022-12-24T08:55:35;3.70;99.90
17726;DHT22;8983;53.156;17.960;2022-12-24T08:58:04;3.70;99.90
17726;DHT22;8983;53.156;17.960;2022-12-24T09:00:32;3.70;99.90
17726;DHT22;8983;53.156;17.960;2022-12-24T09:03:01;3.60;99.90
17726;DHT22;8983;53.156;17.960;2022-12-24T09:05:29;3.70;99.90
17726;DHT22;8983;53.156;17.960;2022-12-24T09:07:57;3.70;99.90
17726;DHT22;8983;53.156;17.960;2022-12-24T09:10:25;3.60;99.90
17726;DHT22;8983;53.156;17.960;2022-12-24T09:12:53;3.60;99.90
17726;DHT22;8983;53.156;17.960;2022-12-24T09:15:22;3.60;99.90
17726;DHT22;8983;53.156;17.960;2022-12-24T09:17:50;3.60;99.90
17726;DHT22;8983;53.156;17.960;2022-12-24T09:20:18;3.50;99.90
17726;DHT22;8983;53.156;17.960;2022-12-24T09:22:46;3.50;99.90
17726;DHT22;8983;53.156;17.960;2022-12-24T09:25:14;3.40;99.90
17726;DHT22;8983;53.156;17.960;2022-12-24T09:27:42;3.40;99.90
17726;DHT22;8983;53.156;17.960;2022-12-24T09:30:11;3.40;99.90
17726;DHT22;8983;53.156;17.960;2022-12-24T09:32:40;3.40;99.90
17726;DHT22;8983;53.156;17.960;2022-12-24T09:35:09;3.40;99.90
17726;DHT22;8983;53.156;17.960;2022-12-24T09:37:37;3.40;99.90
17726;DHT22;8983;53.156;17.960;2022-12-24T09:40:08;3.40;99.90
17726;DHT22;8983;53.156;17.960;2022-12-24T09:42:49;3.40;99.90
17726;DHT22;8983;53.156;17.960;2022-12-24T09:45:23;3.50;99.90
17726;DHT22;8983;53.156;17.960;2022-12-24T09:47:56;3.50;99.90
17726;DHT22;8983;53.156;17.960;2022-12-24T09:50:31;3.60;99.90
17726;DHT22;8983;53.156;17.960;2022-12-24T09:53:04;3.70;99.90
17726;DHT22;8983;53.156;17.960;2022-12-24T09:55:43;3.70;99.90
17726;DHT22;8983;53.156;17.960;2022-12-24T09:58:17;3.70;99.90
17726;DHT22;8983;53.156;17.960;2022-12-24T10:00:47;3.70;99.90
17726;DHT22;8983;53.156;17.960;2022-12-24T10:03:17;3.80;99.90
17726;DHT22;8983;53.156;17.960;2022-12-24T10:05:53;3.80;99.90
17726;DHT22;8983;53.156;17.960;2022-12-24T10:08:28;3.80;99.90
17726;DHT22;8983;53.156;17.960;2022-12-24T10:11:02;3.80;99.90
17726;DHT22;8983;53.156;17.960;2022-12-24T10:13:48;3.90;99.90
17726;DHT22;8983;53.156;17.960;2022-12-24T10:16:23;3.90;99.90
17726;DHT22;8983;53.156;17.960;2022-12-24T10:19:02;4.00;99.90
17726;DHT22;8983;53.156;17.960;2022-12-24T10:21:36;4.00;99.90
17726;DHT22;8983;53.156;17.960;2022-12-24T10:24:11;4.10;99.90
17726;DHT22;8983;53.156;17.960;2022-12-24T10:26:44;4.20;99.90
17726;DHT22;8983;53.156;17.960;2022-12-24T10:29:15;4.10;99.90
17726;DHT22;8983;53.156;17.960;2022-12-24T10:31:51;4.20;99.90
17726;DHT22;8983;53.156;17.960;2022-12-24T10:34:23;4.20;99.90
17726;DHT22;8983;53.156;17.960;2022-12-24T10:36:51;4.20;99.90
17726;DHT22;8983;53.156;17.960;2022-12-24T10:39:22;4.20;99.90
17726;DHT22;8983;53.156;17.960;2022-12-24T10:41:52;4.20;99.90
17726;DHT22;8983;53.156;17.960;2022-12-24T10:44:25;4.20;99.90
17726;DHT22;8983;53.156;17.960;2022-12-24T10:46:54;4.30;99.90
17726;DHT22;8983;53.156;17.960;2022-12-24T10:49:30;4.30;99.90
17726;DHT22;8983;53.156;17.960;2022-12-24T10:52:02;4.40;99.90
17726;DHT22;8983;53.156;17.960;2022-12-24T10:54:33;4.40;99.90
17726;DHT22;8983;53.156;17.960;2022-12-24T10:57:22;4.40;99.90
17726;DHT22;8983;53.156;17.960;2022-12-24T10:59:52;4.40;99.90
17726;DHT22;8983;53.156;17.960;2022-12-24T11:02:26;4.40;99.90
17726;DHT22;8983;53.156;17.960;2022-12-24T11:04:58;4.40;99.90
17726;DHT22;8983;53.156;17.960;2022-12-24T11:07:27;4.40;99.90
17726;DHT22;8983;53.156;17.960;2022-12-24T11:09:57;4.40;99.90
17726;DHT22;8983;53.156;17.960;2022-12-24T11:12:27;4.40;99.90
17726;DHT22;8983;53.156;17.960;2022-12-24T11:15:01;4.40;99.90
17726;DHT22;8983;53.156;17.960;2022-12-24T11:17:30;4.50;99.90
17726;DHT22;8983;53.156;17.960;2022-12-24T11:20:01;4.50;99.90
17726;DHT22;8983;53.156;17.960;2022-12-24T11:22:31;4.50;99.90
17726;DHT22;8983;53.156;17.960;2022-12-24T11:25:04;4.50;99.90
17726;DHT22;8983;53.156;17.960;2022-12-24T11:27:39;4.40;99.90
17726;DHT22;8983;53.156;17.960;2022-12-24T11:30:19;4.40;99.90
17726;DHT22;8983;53.156;17.960;2022-12-24T11:32:49;4.60;99.90
17726;DHT22;8983;53.156;17.960;2022-12-24T11:35:21;4.40;99.90
17726;DHT22;8983;53.156;17.960;2022-12-24T11:38:08;4.40;99.90
17726;DHT22;8983;53.156;17.960;2022-12-24T11:40:40;4.40;99.90
17726;DHT22;8983;53.156;17.960;2022-12-24T11:43:14;4.40;99.90
17726;DHT22;8983;53.156;17.960;2022-12-24T11:45:48;4.40;99.90
17726;DHT22;8983;53.156;17.960;2022-12-24T11:48:25;4.40;99.90
17726;DHT22;8983;53.156;17.960;2022-12-24T11:51:00;4.40;99.90
17726;DHT22;8983;53.156;17.960;2022-12-24T11:53:35;4.40;99.90
17726;DHT22;8983;53.156;17.960;2022-12-24T11:56:07;4.40;99.90
17726;DHT22;8983;53.156;17.960;2022-12-24T11:58:43;4.30;99.90
17726;DHT22;8983;53.156;17.960;2022-12-24T12:01:15;4.50;99.90
17726;DHT22;8983;53.156;17.960;2022-12-24T12:03:48;4.40;99.90
17726;DHT22;8983;53.156;17.960;2022-12-24T12:06:26;4.40;99.90
17726;DHT22;8983;53.156;17.960;2022-12-24T12:08:58;4.40;99.90
17726;DHT22;8983;53.156;17.960;2022-12-24T12:11:28;4.40;99.90
17726;DHT22;8983;53.156;17.960;2022-12-24T12:13:58;4.40;99.90
17726;DHT22;8983;53.156;17.960;2022-12-24T12:16:31;4.50;99.90
17726;DHT22;8983;53.156;17.960;2022-12-24T12:19:27;4.40;99.90
17726;DHT22;8983;53.156;17.960;2022-12-24T12:21:58;4.50;99.90
17726;DHT22;8983;53.156;17.960;2022-12-24T12:24:32;4.50;99.90
17726;DHT22;8983;53.156;17.960;2022-12-24T12:27:18;4.50;99.90
17726;DHT22;8983;53.156;17.960;2022-12-24T12:29:51;4.60;99.90
17726;DHT22;8983;53.156;17.960;2022-12-24T12:32:26;4.60;99.90
17726;DHT22;8983;53.156;17.960;2022-12-24T12:35:03;4.60;99.90
17726;DHT22;8983;53.156;17.960;2022-12-24T12:37:37;4.60;99.90
17726;DHT22;8983;53.156;17.960;2022-12-24T12:40:12;4.60;99.90
17726;DHT22;8983;53.156;17.960;2022-12-24T12:42:44;4.60;99.90
17726;DHT22;8983;53.156;17.960;2022-12-24T12:45:29;4.60;99.90
17726;DHT22;8983;53.156;17.960;2022-12-24T12:48:21;4.70;99.90
17726;DHT22;8983;53.156;17.960;2022-12-24T12:50:57;4.80;99.90
17726;DHT22;8983;53.156;17.960;2022-12-24T12:53:39;5.00;99.90
17726;DHT22;8983;53.156;17.960;2022-12-24T12:56:19;5.20;99.90
17726;DHT22;8983;53.156;17.960;2022-12-24T12:58:52;5.60;99.90
17726;DHT22;8983;53.156;17.960;2022-12-24T13:01:24;5.90;99.90
17726;DHT22;8983;53.156;17.960;2022-12-24T13:04:29;6.10;99.90
17726;DHT22;8983;53.156;17.960;2022-12-24T13:10:27;6.00;99.90
17726;DHT22;8983;53.156;17.960;2022-12-24T13:13:15;5.90;99.90
17726;DHT22;8983;53.156;17.960;2022-12-24T13:16:07;5.70;99.90
17726;DHT22;8983;53.156;17.960;2022-12-24T13:18:43;5.60;99.90
17726;DHT22;8983;53.156;17.960;2022-12-24T13:21:16;5.50;99.90
17726;DHT22;8983;53.156;17.960;2022-12-24T13:23:45;5.40;99.90
17726;DHT22;8983;53.156;17.960;2022-12-24T13:26:14;5.30;99.90
17726;DHT22;8983;53.156;17.960;2022-12-24T13:28:43;5.20;99.90
17726;DHT22;8983;53.156;17.960;2022-12-24T13:31:26;5.20;99.90
17726;DHT22;8983;53.156;17.960;2022-12-24T13:34:33;5.10;99.90
17726;DHT22;8983;53.156;17.960;2022-12-24T13:37:12;5.10;99.90
17726;DHT22;8983;53.156;17.960;2022-12-24T13:40:13;5.00;99.90
17726;DHT22;8983;53.156;17.960;2022-12-24T13:43:08;4.90;99.90
17726;DHT22;8983;53.156;17.960;2022-12-24T13:45:48;4.90;99.90
17726;DHT22;8983;53.156;17.960;2022-12-24T13:48:32;4.80;99.90
17726;DHT22;8983;53.156;17.960;2022-12-24T13:51:17;4.70;99.90
17726;DHT22;8983;53.156;17.960;2022-12-24T13:53:46;4.80;99.90
17726;DHT22;8983;53.156;17.960;2022-12-24T13:56:22;4.80;99.90
17726;DHT22;8983;53.156;17.960;2022-12-24T13:59:08;4.70;99.90
17726;DHT22;8983;53.156;17.960;2022-12-24T14:01:39;4.70;99.90
17726;DHT22;8983;53.156;17.960;2022-12-24T14:04:21;4.60;99.90
17726;DHT22;8983;53.156;17.960;2022-12-24T14:06:52;4.60;99.90
17726;DHT22;8983;53.156;17.960;2022-12-24T14:09:21;4.50;99.90
17726;DHT22;8983;53.156;17.960;2022-12-24T14:12:14;4.40;99.90
17726;DHT22;8983;53.156;17.960;2022-12-24T14:14:46;4.40;99.90
17726;DHT22;8983;53.156;17.960;2022-12-24T14:17:21;4.30;99.90
17726;DHT22;8983;53.156;17.960;2022-12-24T14:19:52;4.30;99.90
17726;DHT22;8983;53.156;17.960;2022-12-24T14:22:27;4.30;99.90
17726;DHT22;8983;53.156;17.960;2022-12-24T14:24:57;4.30;99.90
17726;DHT22;8983;53.156;17.960;2022-12-24T14:27:32;4.30;99.90
17726;DHT22;8983;53.156;17.960;2022-12-24T14:30:05;4.30;99.90
17726;DHT22;8983;53.156;17.960;2022-12-24T14:32:36;4.20;99.90
17726;DHT22;8983;53.156;17.960;2022-12-24T14:35:07;4.20;99.90
17726;DHT22;8983;53.156;17.960;2022-12-24T14:37:37;4.20;99.90
17726;DHT22;8983;53.156;17.960;2022-12-24T14:40:06;4.20;99.90
17726;DHT22;8983;53.156;17.960;2022-12-24T14:42:40;4.10;99.90
17726;DHT22;8983;53.156;17.960;2022-12-24T14:45:20;4.10;99.90
17726;DHT22;8983;53.156;17.960;2022-12-24T14:47:54;4.20;99.90
17726;DHT22;8983;53.156;17.960;2022-12-24T14:50:38;4.10;99.90
17726;DHT22;8983;53.156;17.960;2022-12-24T14:53:21;4.10;99.90
17726;DHT22;8983;53.156;17.960;2022-12-24T14:55:50;4.10;99.90
17726;DHT22;8983;53.156;17.960;2022-12-24T14:58:27;4.00;99.90
17726;DHT22;8983;53.156;17.960;2022-12-24T15:00:58;4.00;99.90
17726;DHT22;8983;53.156;17.960;2022-12-24T15:03:28;4.00;99.90
17726;DHT22;8983;53.156;17.960;2022-12-24T15:05:59;3.90;99.90
17726;DHT22;8983;53.156;17.960;2022-12-24T15:08:30;3.90;99.90
17726;DHT22;8983;53.156;17.960;2022-12-24T15:11:01;3.80;99.90
17726;DHT22;8983;53.156;17.960;2022-12-24T15:13:33;3.90;99.90
17726;DHT22;8983;53.156;17.960;2022-12-24T15:16:06;3.80;99.90
17726;DHT22;8983;53.156;17.960;2022-12-24T15:18:37;3.80;99.90
17726;DHT22;8983;53.156;17.960;2022-12-24T15:21:07;3.80;99.90
17726;DHT22;8983;53.156;17.960;2022-12-24T15:23:45;3.80;99.90
17726;DHT22;8983;53.156;17.960;2022-12-24T15:26:22;3.80;99.90
17726;DHT22;8983;53.156;17.960;2022-12-24T15:28:51;3.80;99.90
17726;DHT22;8983;53.156;17.960;2022-12-24T15:31:30;3.80;99.90
17726;DHT22;8983;53.156;17.960;2022-12-24T15:33:58;3.80;99.90
17726;DHT22;8983;53.156;17.960;2022-12-24T15:36:28;3.80;99.90
17726;DHT22;8983;53.156;17.960;2022-12-24T15:38:59;3.80;99.90
17726;DHT22;8983;53.156;17.960;2022-12-24T15:41:30;3.70;99.90
17726;DHT22;8983;53.156;17.960;2022-12-24T15:44:03;3.70;99.90
17726;DHT22;8983;53.156;17.960;2022-12-24T15:46:33;3.70;99.90
17726;DHT22;8983;53.156;17.960;2022-12-24T15:49:02;3.70;99.90
17726;DHT22;8983;53.156;17.960;2022-12-24T15:51:32;3.70;99.90
17726;DHT22;8983;53.156;17.960;2022-12-24T15:54:09;3.80;99.90
17726;DHT22;8983;53.156;17.960;2022-12-24T15:56:39;3.70;99.90
17726;DHT22;8983;53.156;17.960;2022-12-24T15:59:24;3.60;99.90
17726;DHT22;8983;53.156;17.960;2022-12-24T16:01:56;3.60;99.90
17726;DHT22;8983;53.156;17.960;2022-12-24T16:04:26;3.60;99.90
17726;DHT22;8983;53.156;17.960;2022-12-24T16:06:56;3.60;99.90
17726;DHT22;8983;53.156;17.960;2022-12-24T16:09:35;3.60;99.90
17726;DHT22;8983;53.156;17.960;2022-12-24T16:12:13;3.60;99.90
17726;DHT22;8983;53.156;17.960;2022-12-24T16:14:46;3.60;99.90
17726;DHT22;8983;53.156;17.960;2022-12-24T16:17:20;3.50;99.90